sensor_id;sensor_type;location;lat;lon;timestamp;P1;durP1;ratioP1;P2;durP2;ratioP2
39370;SDS011;25099;51.946;4.838;2024-01-25T00:02:23;31.63;;;5.32;;
39370;SDS011;25099;51.946;4.838;2024-01-25T00:04:49;45.17;;;7.38;;
39370;SDS011;25099;51.946;4.838;2024-01-25T00:07:32;39.10;;;6.22;;
39370;SDS011;25099;51.946;4.838;2024-01-25T00:09:58;34.13;;;5.90;;
39370;SDS011;25099;51.946;4.838;2024-01-25T00:12:24;39.10;;;6.72;;
39370;SDS011;25099;51.946;4.838;2024-01-25T00:14:49;37.33;;;5.90;;
39370;SDS011;25099;51.946;4.838;2024-01-25T00:17:17;29.40;;;5.22;;
39370;SDS011;25099;51.946;4.838;2024-01-25T00:19:42;34.63;;;5.75;;
39370;SDS011;25099;51.946;4.838;2024-01-25T00:22:08;48.80;;;6.80;;
39370;SDS011;25099;51.946;4.838;2024-01-25T00:24:34;36.97;;;6.15;;
39370;SDS011;25099;51.946;4.838;2024-01-25T00:26:59;45.95;;;6.63;;
39370;SDS011;25099;51.946;4.838;2024-01-25T00:29:25;43.80;;;6.35;;
39370;SDS011;25099;51.946;4.838;2024-01-25T00:31:50;38.75;;;6.45;;
39370;SDS011;25099;51.946;4.838;2024-01-25T00:34:16;35.35;;;6.13;;
39370;SDS011;25099;51.946;4.838;2024-01-25T00:36:42;44.22;;;7.90;;
39370;SDS011;25099;51.946;4.838;2024-01-25T00:39:08;30.40;;;6.85;;
39370;SDS011;25099;51.946;4.838;2024-01-25T00:41:34;39.38;;;6.28;;
39370;SDS011;25099;51.946;4.838;2024-01-25T00:44:00;46.92;;;7.35;;
39370;SDS011;25099;51.946;4.838;2024-01-25T00:46:26;39.35;;;6.70;;
39370;SDS011;25099;51.946;4.838;2024-01-25T00:48:52;34.25;;;6.40;;
39370;SDS011;25099;51.946;4.838;2024-01-25T00:51:20;33.05;;;6.90;;
39370;SDS011;25099;51.946;4.838;2024-01-25T00:53:47;32.78;;;6.22;;
39370;SDS011;25099;51.946;4.838;2024-01-25T00:56:13;37.95;;;7.15;;
39370;SDS011;25099;51.946;4.838;2024-01-25T00:58:41;36.05;;;6.93;;
39370;SDS011;25099;51.946;4.838;2024-01-25T01:01:06;44.90;;;6.43;;
39370;SDS011;25099;51.946;4.838;2024-01-25T01:03:32;30.08;;;6.13;;
39370;SDS011;25099;51.946;4.838;2024-01-25T01:05:58;44.83;;;7.60;;
39370;SDS011;25099;51.946;4.838;2024-01-25T01:08:24;29.90;;;5.28;;
39370;SDS011;25099;51.946;4.838;2024-01-25T01:10:51;42.80;;;6.22;;
39370;SDS011;25099;51.946;4.838;2024-01-25T01:13:16;27.05;;;5.22;;
39370;SDS011;25099;51.946;4.838;2024-01-25T01:15:42;48.88;;;5.97;;
39370;SDS011;25099;51.946;4.838;2024-01-25T01:18:07;35.05;;;5.78;;
39370;SDS011;25099;51.946;4.838;2024-01-25T01:20:33;32.50;;;6.03;;
39370;SDS011;25099;51.946;4.838;2024-01-25T01:22:58;36.13;;;6.20;;
39370;SDS011;25099;51.946;4.838;2024-01-25T01:25:24;31.83;;;6.18;;
39370;SDS011;25099;51.946;4.838;2024-01-25T01:27:49;41.35;;;6.28;;
39370;SDS011;25099;51.946;4.838;2024-01-25T01:30:15;35.90;;;7.28;;
39370;SDS011;25099;51.946;4.838;2024-01-25T01:32:41;38.75;;;6.70;;
39370;SDS011;25099;51.946;4.838;2024-01-25T01:35:06;43.95;;;7.05;;
39370;SDS011;25099;51.946;4.838;2024-01-25T01:37:32;40.25;;;6.18;;
39370;SDS011;25099;51.946;4.838;2024-01-25T01:39:57;41.17;;;6.57;;
39370;SDS011;25099;51.946;4.838;2024-01-25T01:42:24;37.83;;;6.07;;
39370;SDS011;25099;51.946;4.838;2024-01-25T01:44:50;39.70;;;6.63;;
39370;SDS011;25099;51.946;4.838;2024-01-25T01:47:17;37.92;;;6.63;;
39370;SDS011;25099;51.946;4.838;2024-01-25T01:49:43;43.35;;;6.72;;
39370;SDS011;25099;51.946;4.838;2024-01-25T01:52:08;37.30;;;6.15;;
39370;SDS011;25099;51.946;4.838;2024-01-25T01:54:34;37.53;;;6.45;;
39370;SDS011;25099;51.946;4.838;2024-01-25T01:57:01;40.45;;;6.53;;
39370;SDS011;25099;51.946;4.838;2024-01-25T01:59:27;37.10;;;5.82;;
39370;SDS011;25099;51.946;4.838;2024-01-25T02:01:54;44.92;;;6.50;;
39370;SDS011;25099;51.946;4.838;2024-01-25T02:04:19;37.97;;;6.15;;
39370;SDS011;25099;51.946;4.838;2024-01-25T02:06:45;45.03;;;7.00;;
39370;SDS011;25099;51.946;4.838;2024-01-25T02:09:11;35.72;;;4.93;;
39370;SDS011;25099;51.946;4.838;2024-01-25T02:11:37;37.92;;;6.35;;
39370;SDS011;25099;51.946;4.838;2024-01-25T02:14:03;34.55;;;7.50;;
39370;SDS011;25099;51.946;4.838;2024-01-25T02:16:28;52.33;;;6.75;;
39370;SDS011;25099;51.946;4.838;2024-01-25T02:18:54;35.80;;;6.13;;
39370;SDS011;25099;51.946;4.838;2024-01-25T02:21:22;35.85;;;6.10;;
39370;SDS011;25099;51.946;4.838;2024-01-25T02:23:47;38.15;;;7.68;;
39370;SDS011;25099;51.946;4.838;2024-01-25T02:26:13;36.63;;;6.25;;
39370;SDS011;25099;51.946;4.838;2024-01-25T02:28:38;44.78;;;6.45;;
39370;SDS011;25099;51.946;4.838;2024-01-25T02:31:04;32.38;;;5.50;;
39370;SDS011;25099;51.946;4.838;2024-01-25T02:33:29;39.00;;;5.72;;
39370;SDS011;25099;51.946;4.838;2024-01-25T02:35:55;40.40;;;6.47;;
39370;SDS011;25099;51.946;4.838;2024-01-25T02:38:21;36.40;;;6.07;;
39370;SDS011;25099;51.946;4.838;2024-01-25T02:40:46;47.30;;;6.25;;
39370;SDS011;25099;51.946;4.838;2024-01-25T02:43:24;37.78;;;6.15;;
39370;SDS011;25099;51.946;4.838;2024-01-25T02:45:49;31.42;;;5.30;;
39370;SDS011;25099;51.946;4.838;2024-01-25T02:48:15;28.80;;;5.40;;
39370;SDS011;25099;51.946;4.838;2024-01-25T02:50:56;32.55;;;5.80;;
39370;SDS011;25099;51.946;4.838;2024-01-25T02:53:22;27.55;;;4.90;;
39370;SDS011;25099;51.946;4.838;2024-01-25T02:55:47;32.50;;;6.38;;
39370;SDS011;25099;51.946;4.838;2024-01-25T02:58:13;37.63;;;5.32;;
39370;SDS011;25099;51.946;4.838;2024-01-25T03:03:26;35.05;;;6.25;;
39370;SDS011;25099;51.946;4.838;2024-01-25T03:05:52;34.05;;;6.25;;
39370;SDS011;25099;51.946;4.838;2024-01-25T03:08:17;27.98;;;5.78;;
39370;SDS011;25099;51.946;4.838;2024-01-25T03:10:43;40.20;;;5.93;;
39370;SDS011;25099;51.946;4.838;2024-01-25T03:13:10;26.67;;;6.07;;
39370;SDS011;25099;51.946;4.838;2024-01-25T03:15:35;29.33;;;5.53;;
39370;SDS011;25099;51.946;4.838;2024-01-25T03:18:01;33.63;;;6.38;;
39370;SDS011;25099;51.946;4.838;2024-01-25T03:20:26;26.60;;;4.95;;
39370;SDS011;25099;51.946;4.838;2024-01-25T03:22:52;37.53;;;5.53;;
39370;SDS011;25099;51.946;4.838;2024-01-25T03:25:19;46.33;;;6.70;;
39370;SDS011;25099;51.946;4.838;2024-01-25T03:27:46;35.10;;;6.60;;
39370;SDS011;25099;51.946;4.838;2024-01-25T03:30:11;22.88;;;5.63;;
39370;SDS011;25099;51.946;4.838;2024-01-25T03:32:37;37.20;;;5.55;;
39370;SDS011;25099;51.946;4.838;2024-01-25T03:35:03;37.17;;;5.93;;
39370;SDS011;25099;51.946;4.838;2024-01-25T03:37:29;34.72;;;8.32;;
39370;SDS011;25099;51.946;4.838;2024-01-25T03:39:54;39.70;;;6.13;;
39370;SDS011;25099;51.946;4.838;2024-01-25T03:42:20;38.97;;;6.70;;
39370;SDS011;25099;51.946;4.838;2024-01-25T03:44:45;41.75;;;7.97;;
39370;SDS011;25099;51.946;4.838;2024-01-25T03:47:12;35.88;;;5.55;;
39370;SDS011;25099;51.946;4.838;2024-01-25T03:49:37;32.45;;;5.93;;
39370;SDS011;25099;51.946;4.838;2024-01-25T03:52:04;28.02;;;6.03;;
39370;SDS011;25099;51.946;4.838;2024-01-25T03:54:30;36.67;;;6.15;;
39370;SDS011;25099;51.946;4.838;2024-01-25T03:56:55;40.42;;;7.60;;
39370;SDS011;25099;51.946;4.838;2024-01-25T03:59:21;35.35;;;6.57;;
39370;SDS011;25099;51.946;4.838;2024-01-25T04:01:46;27.58;;;5.15;;
39370;SDS011;25099;51.946;4.838;2024-01-25T04:04:15;38.58;;;6.93;;
39370;SDS011;25099;51.946;4.838;2024-01-25T04:06:41;39.63;;;7.03;;
39370;SDS011;25099;51.946;4.838;2024-01-25T04:09:08;33.25;;;6.95;;
39370;SDS011;25099;51.946;4.838;2024-01-25T04:11:34;34.05;;;6.85;;
39370;SDS011;25099;51.946;4.838;2024-01-25T04:14:00;34.42;;;7.13;;
39370;SDS011;25099;51.946;4.838;2024-01-25T04:16:26;27.13;;;5.50;;
39370;SDS011;25099;51.946;4.838;2024-01-25T04:18:51;31.92;;;6.25;;
39370;SDS011;25099;51.946;4.838;2024-01-25T04:21:17;29.73;;;5.65;;
39370;SDS011;25099;51.946;4.838;2024-01-25T04:23:42;38.42;;;6.53;;
39370;SDS011;25099;51.946;4.838;2024-01-25T04:26:08;29.23;;;6.80;;
39370;SDS011;25099;51.946;4.838;2024-01-25T04:28:33;26.85;;;6.18;;
39370;SDS011;25099;51.946;4.838;2024-01-25T04:30:59;29.83;;;5.78;;
39370;SDS011;25099;51.946;4.838;2024-01-25T04:33:28;38.15;;;6.47;;
39370;SDS011;25099;51.946;4.838;2024-01-25T04:35:53;29.27;;;5.70;;
39370;SDS011;25099;51.946;4.838;2024-01-25T04:38:19;37.03;;;7.15;;
39370;SDS011;25099;51.946;4.838;2024-01-25T04:40:57;37.25;;;5.80;;
39370;SDS011;25099;51.946;4.838;2024-01-25T04:43:22;38.40;;;8.20;;
39370;SDS011;25099;51.946;4.838;2024-01-25T04:45:48;32.95;;;5.80;;
39370;SDS011;25099;51.946;4.838;2024-01-25T04:48:13;36.72;;;6.50;;
39370;SDS011;25099;51.946;4.838;2024-01-25T04:50:39;28.70;;;5.93;;
39370;SDS011;25099;51.946;4.838;2024-01-25T04:53:17;42.33;;;5.95;;
39370;SDS011;25099;51.946;4.838;2024-01-25T04:55:42;28.08;;;6.05;;
39370;SDS011;25099;51.946;4.838;2024-01-25T04:58:08;28.42;;;6.32;;
39370;SDS011;25099;51.946;4.838;2024-01-25T05:00:33;40.40;;;6.82;;
39370;SDS011;25099;51.946;4.838;2024-01-25T05:03:00;45.50;;;6.70;;
39370;SDS011;25099;51.946;4.838;2024-01-25T05:05:32;50.55;;;7.97;;
39370;SDS011;25099;51.946;4.838;2024-01-25T05:07:57;32.28;;;5.45;;
39370;SDS011;25099;51.946;4.838;2024-01-25T05:10:23;36.60;;;7.10;;
39370;SDS011;25099;51.946;4.838;2024-01-25T05:12:50;30.77;;;5.85;;
39370;SDS011;25099;51.946;4.838;2024-01-25T05:15:16;29.92;;;6.63;;
39370;SDS011;25099;51.946;4.838;2024-01-25T05:17:41;33.08;;;5.20;;
39370;SDS011;25099;51.946;4.838;2024-01-25T05:20:19;29.05;;;5.22;;
39370;SDS011;25099;51.946;4.838;2024-01-25T05:22:45;35.70;;;6.20;;
39370;SDS011;25099;51.946;4.838;2024-01-25T05:25:11;35.78;;;6.28;;
39370;SDS011;25099;51.946;4.838;2024-01-25T05:27:36;22.92;;;6.47;;
39370;SDS011;25099;51.946;4.838;2024-01-25T05:30:08;29.60;;;6.03;;
39370;SDS011;25099;51.946;4.838;2024-01-25T05:32:35;37.78;;;6.57;;
39370;SDS011;25099;51.946;4.838;2024-01-25T05:35:16;34.40;;;6.15;;
39370;SDS011;25099;51.946;4.838;2024-01-25T05:37:42;40.50;;;6.28;;
39370;SDS011;25099;51.946;4.838;2024-01-25T05:40:09;27.58;;;5.30;;
39370;SDS011;25099;51.946;4.838;2024-01-25T05:42:35;31.15;;;6.80;;
39370;SDS011;25099;51.946;4.838;2024-01-25T05:45:04;39.10;;;6.13;;
39370;SDS011;25099;51.946;4.838;2024-01-25T05:47:30;37.60;;;7.82;;
39370;SDS011;25099;51.946;4.838;2024-01-25T05:49:56;42.53;;;6.97;;
39370;SDS011;25099;51.946;4.838;2024-01-25T05:52:22;45.38;;;5.82;;
39370;SDS011;25099;51.946;4.838;2024-01-25T05:54:48;40.47;;;6.85;;
39370;SDS011;25099;51.946;4.838;2024-01-25T05:57:14;50.38;;;7.75;;
39370;SDS011;25099;51.946;4.838;2024-01-25T05:59:40;41.58;;;7.32;;
39370;SDS011;25099;51.946;4.838;2024-01-25T06:02:07;36.53;;;6.90;;
39370;SDS011;25099;51.946;4.838;2024-01-25T06:04:33;31.92;;;6.10;;
39370;SDS011;25099;51.946;4.838;2024-01-25T06:06:59;44.15;;;6.65;;
39370;SDS011;25099;51.946;4.838;2024-01-25T06:09:25;37.20;;;7.95;;
39370;SDS011;25099;51.946;4.838;2024-01-25T06:11:50;48.80;;;6.90;;
39370;SDS011;25099;51.946;4.838;2024-01-25T06:14:16;38.45;;;6.93;;
39370;SDS011;25099;51.946;4.838;2024-01-25T06:16:42;39.60;;;6.53;;
39370;SDS011;25099;51.946;4.838;2024-01-25T06:19:08;34.97;;;5.97;;
39370;SDS011;25099;51.946;4.838;2024-01-25T06:21:34;34.70;;;6.72;;
39370;SDS011;25099;51.946;4.838;2024-01-25T06:24:15;43.97;;;7.75;;
39370;SDS011;25099;51.946;4.838;2024-01-25T06:26:41;38.05;;;6.50;;
39370;SDS011;25099;51.946;4.838;2024-01-25T06:29:09;35.45;;;6.75;;
39370;SDS011;25099;51.946;4.838;2024-01-25T06:31:41;44.30;;;6.78;;
39370;SDS011;25099;51.946;4.838;2024-01-25T06:34:28;36.05;;;7.20;;
39370;SDS011;25099;51.946;4.838;2024-01-25T06:37:12;33.55;;;6.78;;
39370;SDS011;25099;51.946;4.838;2024-01-25T06:39:40;34.22;;;7.75;;
39370;SDS011;25099;51.946;4.838;2024-01-25T06:42:05;39.75;;;6.57;;
39370;SDS011;25099;51.946;4.838;2024-01-25T06:44:32;28.50;;;7.15;;
39370;SDS011;25099;51.946;4.838;2024-01-25T06:46:57;35.80;;;6.90;;
39370;SDS011;25099;51.946;4.838;2024-01-25T06:49:23;38.63;;;7.60;;
39370;SDS011;25099;51.946;4.838;2024-01-25T06:51:50;30.52;;;6.72;;
39370;SDS011;25099;51.946;4.838;2024-01-25T06:54:15;47.47;;;6.78;;
39370;SDS011;25099;51.946;4.838;2024-01-25T06:56:41;39.35;;;7.25;;
39370;SDS011;25099;51.946;4.838;2024-01-25T06:59:07;31.15;;;6.53;;
39370;SDS011;25099;51.946;4.838;2024-01-25T07:01:32;34.13;;;5.85;;
39370;SDS011;25099;51.946;4.838;2024-01-25T07:03:58;50.63;;;8.95;;
39370;SDS011;25099;51.946;4.838;2024-01-25T07:06:23;50.97;;;8.00;;
39370;SDS011;25099;51.946;4.838;2024-01-25T07:08:49;41.55;;;6.28;;
39370;SDS011;25099;51.946;4.838;2024-01-25T07:11:15;41.92;;;8.00;;
39370;SDS011;25099;51.946;4.838;2024-01-25T07:13:42;42.30;;;7.68;;
39370;SDS011;25099;51.946;4.838;2024-01-25T07:16:07;45.90;;;7.55;;
39370;SDS011;25099;51.946;4.838;2024-01-25T07:18:34;42.42;;;7.53;;
39370;SDS011;25099;51.946;4.838;2024-01-25T07:21:00;50.30;;;7.45;;
39370;SDS011;25099;51.946;4.838;2024-01-25T07:23:26;37.90;;;6.88;;
39370;SDS011;25099;51.946;4.838;2024-01-25T07:25:51;56.22;;;8.73;;
39370;SDS011;25099;51.946;4.838;2024-01-25T07:28:19;46.85;;;7.47;;
39370;SDS011;25099;51.946;4.838;2024-01-25T07:30:46;42.22;;;7.95;;
39370;SDS011;25099;51.946;4.838;2024-01-25T07:33:12;41.40;;;6.07;;
39370;SDS011;25099;51.946;4.838;2024-01-25T07:35:37;38.40;;;6.40;;
39370;SDS011;25099;51.946;4.838;2024-01-25T07:38:07;27.77;;;5.50;;
39370;SDS011;25099;51.946;4.838;2024-01-25T07:40:32;40.40;;;5.47;;
39370;SDS011;25099;51.946;4.838;2024-01-25T07:42:58;41.67;;;7.18;;
39370;SDS011;25099;51.946;4.838;2024-01-25T07:45:24;45.13;;;7.28;;
39370;SDS011;25099;51.946;4.838;2024-01-25T07:47:50;34.10;;;5.85;;
39370;SDS011;25099;51.946;4.838;2024-01-25T07:50:15;41.85;;;6.63;;
39370;SDS011;25099;51.946;4.838;2024-01-25T07:52:42;37.05;;;6.57;;
39370;SDS011;25099;51.946;4.838;2024-01-25T07:55:07;42.45;;;7.35;;
39370;SDS011;25099;51.946;4.838;2024-01-25T07:57:33;50.55;;;7.10;;
39370;SDS011;25099;51.946;4.838;2024-01-25T07:59:59;37.17;;;6.22;;
39370;SDS011;25099;51.946;4.838;2024-01-25T08:02:24;30.15;;;5.97;;
39370;SDS011;25099;51.946;4.838;2024-01-25T08:04:50;47.67;;;6.35;;
39370;SDS011;25099;51.946;4.838;2024-01-25T08:07:15;36.40;;;6.88;;
39370;SDS011;25099;51.946;4.838;2024-01-25T08:09:44;43.35;;;7.13;;
39370;SDS011;25099;51.946;4.838;2024-01-25T08:12:30;36.30;;;6.95;;
39370;SDS011;25099;51.946;4.838;2024-01-25T08:14:55;31.05;;;5.60;;
39370;SDS011;25099;51.946;4.838;2024-01-25T08:17:21;37.75;;;6.90;;
39370;SDS011;25099;51.946;4.838;2024-01-25T08:20:05;40.42;;;6.75;;
39370;SDS011;25099;51.946;4.838;2024-01-25T08:22:31;45.95;;;6.47;;
39370;SDS011;25099;51.946;4.838;2024-01-25T08:24:58;36.35;;;7.15;;
39370;SDS011;25099;51.946;4.838;2024-01-25T08:27:24;37.67;;;7.43;;
39370;SDS011;25099;51.946;4.838;2024-01-25T08:32:37;30.92;;;6.88;;
39370;SDS011;25099;51.946;4.838;2024-01-25T08:35:02;33.15;;;7.75;;
39370;SDS011;25099;51.946;4.838;2024-01-25T08:37:31;35.95;;;7.47;;
39370;SDS011;25099;51.946;4.838;2024-01-25T08:39:58;41.58;;;6.90;;
39370;SDS011;25099;51.946;4.838;2024-01-25T08:42:23;42.15;;;6.75;;
39370;SDS011;25099;51.946;4.838;2024-01-25T08:44:49;28.08;;;7.40;;
39370;SDS011;25099;51.946;4.838;2024-01-25T08:47:15;41.83;;;6.70;;
39370;SDS011;25099;51.946;4.838;2024-01-25T08:49:42;42.00;;;7.45;;
39370;SDS011;25099;51.946;4.838;2024-01-25T08:52:08;38.97;;;7.15;;
39370;SDS011;25099;51.946;4.838;2024-01-25T08:54:34;39.75;;;6.60;;
39370;SDS011;25099;51.946;4.838;2024-01-25T08:57:02;30.42;;;7.38;;
39370;SDS011;25099;51.946;4.838;2024-01-25T08:59:28;39.03;;;7.25;;
39370;SDS011;25099;51.946;4.838;2024-01-25T09:01:56;40.42;;;7.22;;
39370;SDS011;25099;51.946;4.838;2024-01-25T09:04:21;42.20;;;8.57;;
39370;SDS011;25099;51.946;4.838;2024-01-25T09:06:47;46.85;;;7.50;;
39370;SDS011;25099;51.946;4.838;2024-01-25T09:09:12;40.53;;;8.25;;
39370;SDS011;25099;51.946;4.838;2024-01-25T09:11:38;36.67;;;8.05;;
39370;SDS011;25099;51.946;4.838;2024-01-25T09:14:08;36.85;;;7.30;;
39370;SDS011;25099;51.946;4.838;2024-01-25T09:16:33;37.08;;;7.57;;
39370;SDS011;25099;51.946;4.838;2024-01-25T09:19:02;42.78;;;7.72;;
39370;SDS011;25099;51.946;4.838;2024-01-25T09:21:27;36.08;;;7.65;;
39370;SDS011;25099;51.946;4.838;2024-01-25T09:23:53;31.10;;;7.15;;
39370;SDS011;25099;51.946;4.838;2024-01-25T09:26:19;37.55;;;7.45;;
39370;SDS011;25099;51.946;4.838;2024-01-25T09:28:44;33.40;;;7.25;;
39370;SDS011;25099;51.946;4.838;2024-01-25T09:31:10;33.60;;;7.50;;
39370;SDS011;25099;51.946;4.838;2024-01-25T09:33:35;37.58;;;6.93;;
39370;SDS011;25099;51.946;4.838;2024-01-25T09:36:01;41.67;;;7.97;;
39370;SDS011;25099;51.946;4.838;2024-01-25T09:38:27;38.35;;;7.18;;
39370;SDS011;25099;51.946;4.838;2024-01-25T09:40:52;42.92;;;7.82;;
39370;SDS011;25099;51.946;4.838;2024-01-25T09:43:18;24.23;;;6.55;;
39370;SDS011;25099;51.946;4.838;2024-01-25T09:46:03;35.85;;;8.75;;
39370;SDS011;25099;51.946;4.838;2024-01-25T09:48:32;41.72;;;8.38;;
39370;SDS011;25099;51.946;4.838;2024-01-25T09:50:58;42.60;;;7.15;;
39370;SDS011;25099;51.946;4.838;2024-01-25T09:56:13;37.33;;;7.43;;
39370;SDS011;25099;51.946;4.838;2024-01-25T09:59:03;41.67;;;7.55;;
39370;SDS011;25099;51.946;4.838;2024-01-25T10:01:29;35.65;;;7.47;;
39370;SDS011;25099;51.946;4.838;2024-01-25T10:03:55;30.15;;;7.35;;
39370;SDS011;25099;51.946;4.838;2024-01-25T10:09:08;35.40;;;7.18;;
39370;SDS011;25099;51.946;4.838;2024-01-25T10:11:35;32.38;;;6.85;;
39370;SDS011;25099;51.946;4.838;2024-01-25T10:14:09;50.65;;;9.30;;
39370;SDS011;25099;51.946;4.838;2024-01-25T10:16:35;40.75;;;8.45;;
39370;SDS011;25099;51.946;4.838;2024-01-25T10:19:01;37.45;;;7.05;;
39370;SDS011;25099;51.946;4.838;2024-01-25T10:21:31;39.60;;;8.05;;
39370;SDS011;25099;51.946;4.838;2024-01-25T10:26:44;32.92;;;8.15;;
39370;SDS011;25099;51.946;4.838;2024-01-25T10:29:30;31.55;;;7.43;;
39370;SDS011;25099;51.946;4.838;2024-01-25T10:32:14;30.58;;;8.32;;
39370;SDS011;25099;51.946;4.838;2024-01-25T10:34:40;49.92;;;9.10;;
39370;SDS011;25099;51.946;4.838;2024-01-25T10:37:08;34.50;;;7.97;;
39370;SDS011;25099;51.946;4.838;2024-01-25T10:39:54;49.45;;;8.27;;
39370;SDS011;25099;51.946;4.838;2024-01-25T10:45:28;44.33;;;9.27;;
39370;SDS011;25099;51.946;4.838;2024-01-25T10:47:53;42.80;;;9.00;;
39370;SDS011;25099;51.946;4.838;2024-01-25T10:50:19;50.83;;;8.77;;
39370;SDS011;25099;51.946;4.838;2024-01-25T10:53:03;35.78;;;7.75;;
39370;SDS011;25099;51.946;4.838;2024-01-25T10:55:30;28.88;;;9.07;;
39370;SDS011;25099;51.946;4.838;2024-01-25T10:57:56;44.05;;;9.68;;
39370;SDS011;25099;51.946;4.838;2024-01-25T11:00:40;44.38;;;9.88;;
39370;SDS011;25099;51.946;4.838;2024-01-25T11:03:08;41.58;;;9.18;;
39370;SDS011;25099;51.946;4.838;2024-01-25T11:05:35;46.42;;;9.10;;
39370;SDS011;25099;51.946;4.838;2024-01-25T11:10:52;37.15;;;9.50;;
39370;SDS011;25099;51.946;4.838;2024-01-25T11:19:04;54.38;;;13.57;;
39370;SDS011;25099;51.946;4.838;2024-01-25T11:21:49;41.25;;;10.15;;
39370;SDS011;25099;51.946;4.838;2024-01-25T11:24:23;38.45;;;11.55;;
39370;SDS011;25099;51.946;4.838;2024-01-25T11:27:09;37.70;;;11.60;;
39370;SDS011;25099;51.946;4.838;2024-01-25T11:29:38;47.35;;;11.45;;
39370;SDS011;25099;51.946;4.838;2024-01-25T11:32:21;52.53;;;12.75;;
39370;SDS011;25099;51.946;4.838;2024-01-25T11:34:56;42.20;;;10.73;;
39370;SDS011;25099;51.946;4.838;2024-01-25T11:37:41;50.78;;;12.13;;
39370;SDS011;25099;51.946;4.838;2024-01-25T11:40:08;43.50;;;13.18;;
39370;SDS011;25099;51.946;4.838;2024-01-25T11:45:23;46.28;;;12.57;;
39370;SDS011;25099;51.946;4.838;2024-01-25T11:47:49;43.65;;;10.77;;
39370;SDS011;25099;51.946;4.838;2024-01-25T11:50:33;42.63;;;12.27;;
39370;SDS011;25099;51.946;4.838;2024-01-25T11:52:59;44.58;;;12.95;;
39370;SDS011;25099;51.946;4.838;2024-01-25T11:55:43;59.97;;;12.50;;
39370;SDS011;25099;51.946;4.838;2024-01-25T11:58:09;42.47;;;13.10;;
39370;SDS011;25099;51.946;4.838;2024-01-25T12:00:34;38.22;;;11.45;;
39370;SDS011;25099;51.946;4.838;2024-01-25T12:03:14;56.35;;;12.95;;
39370;SDS011;25099;51.946;4.838;2024-01-25T12:05:40;54.33;;;11.87;;
39370;SDS011;25099;51.946;4.838;2024-01-25T12:08:10;51.10;;;14.02;;
39370;SDS011;25099;51.946;4.838;2024-01-25T12:13:31;45.40;;;10.85;;
39370;SDS011;25099;51.946;4.838;2024-01-25T12:16:17;44.65;;;11.02;;
39370;SDS011;25099;51.946;4.838;2024-01-25T12:18:43;43.22;;;11.60;;
39370;SDS011;25099;51.946;4.838;2024-01-25T12:21:09;52.08;;;12.38;;
39370;SDS011;25099;51.946;4.838;2024-01-25T12:23:50;54.38;;;12.77;;
39370;SDS011;25099;51.946;4.838;2024-01-25T12:26:16;52.88;;;11.85;;
39370;SDS011;25099;51.946;4.838;2024-01-25T12:28:42;53.17;;;13.15;;
39370;SDS011;25099;51.946;4.838;2024-01-25T12:33:52;43.28;;;11.02;;
39370;SDS011;25099;51.946;4.838;2024-01-25T12:36:18;49.70;;;11.27;;
39370;SDS011;25099;51.946;4.838;2024-01-25T12:41:29;44.80;;;11.57;;
39370;SDS011;25099;51.946;4.838;2024-01-25T12:43:55;47.42;;;11.55;;
39370;SDS011;25099;51.946;4.838;2024-01-25T12:46:20;56.97;;;11.52;;
39370;SDS011;25099;51.946;4.838;2024-01-25T12:48:46;47.35;;;11.13;;
39370;SDS011;25099;51.946;4.838;2024-01-25T12:51:11;45.92;;;10.90;;
39370;SDS011;25099;51.946;4.838;2024-01-25T12:53:37;45.80;;;10.82;;
39370;SDS011;25099;51.946;4.838;2024-01-25T12:56:03;40.45;;;10.43;;
39370;SDS011;25099;51.946;4.838;2024-01-25T13:01:13;43.53;;;10.00;;
39370;SDS011;25099;51.946;4.838;2024-01-25T13:03:39;42.60;;;9.90;;
39370;SDS011;25099;51.946;4.838;2024-01-25T13:06:07;50.00;;;10.55;;
39370;SDS011;25099;51.946;4.838;2024-01-25T13:08:37;51.13;;;10.38;;
39370;SDS011;25099;51.946;4.838;2024-01-25T13:11:03;51.10;;;10.60;;
39370;SDS011;25099;51.946;4.838;2024-01-25T13:13:29;55.30;;;10.95;;
39370;SDS011;25099;51.946;4.838;2024-01-25T13:15:54;43.67;;;10.48;;
39370;SDS011;25099;51.946;4.838;2024-01-25T13:18:20;38.42;;;10.20;;
39370;SDS011;25099;51.946;4.838;2024-01-25T13:20:46;53.85;;;11.43;;
39370;SDS011;25099;51.946;4.838;2024-01-25T13:23:12;44.03;;;10.68;;
39370;SDS011;25099;51.946;4.838;2024-01-25T13:25:38;47.67;;;10.23;;
39370;SDS011;25099;51.946;4.838;2024-01-25T13:28:04;53.40;;;10.63;;
39370;SDS011;25099;51.946;4.838;2024-01-25T13:30:29;44.28;;;10.40;;
39370;SDS011;25099;51.946;4.838;2024-01-25T13:33:13;44.60;;;10.30;;
39370;SDS011;25099;51.946;4.838;2024-01-25T13:35:39;54.78;;;11.23;;
39370;SDS011;25099;51.946;4.838;2024-01-25T13:38:05;47.33;;;12.32;;
39370;SDS011;25099;51.946;4.838;2024-01-25T13:40:30;46.38;;;11.00;;
39370;SDS011;25099;51.946;4.838;2024-01-25T13:43:14;51.92;;;10.98;;
39370;SDS011;25099;51.946;4.838;2024-01-25T13:45:39;48.60;;;11.20;;
39370;SDS011;25099;51.946;4.838;2024-01-25T13:48:05;41.70;;;9.27;;
39370;SDS011;25099;51.946;4.838;2024-01-25T13:50:31;51.30;;;11.25;;
39370;SDS011;25099;51.946;4.838;2024-01-25T13:55:42;39.22;;;9.82;;
39370;SDS011;25099;51.946;4.838;2024-01-25T13:58:13;61.65;;;10.57;;
39370;SDS011;25099;51.946;4.838;2024-01-25T14:00:42;56.78;;;11.23;;
39370;SDS011;25099;51.946;4.838;2024-01-25T14:03:07;55.20;;;10.82;;
39370;SDS011;25099;51.946;4.838;2024-01-25T14:05:33;44.00;;;9.70;;
39370;SDS011;25099;51.946;4.838;2024-01-25T14:08:00;60.85;;;10.57;;
39370;SDS011;25099;51.946;4.838;2024-01-25T14:10:26;58.25;;;11.68;;
39370;SDS011;25099;51.946;4.838;2024-01-25T14:12:55;56.30;;;10.57;;
39370;SDS011;25099;51.946;4.838;2024-01-25T14:15:21;47.90;;;9.40;;
39370;SDS011;25099;51.946;4.838;2024-01-25T14:17:59;59.63;;;12.23;;
39370;SDS011;25099;51.946;4.838;2024-01-25T14:20:25;52.13;;;12.13;;
39370;SDS011;25099;51.946;4.838;2024-01-25T14:22:53;67.10;;;11.77;;
39370;SDS011;25099;51.946;4.838;2024-01-25T14:25:22;49.33;;;12.77;;
39370;SDS011;25099;51.946;4.838;2024-01-25T14:27:47;58.25;;;13.35;;
39370;SDS011;25099;51.946;4.838;2024-01-25T14:30:14;51.00;;;12.98;;
39370;SDS011;25099;51.946;4.838;2024-01-25T14:32:40;64.18;;;13.57;;
39370;SDS011;25099;51.946;4.838;2024-01-25T14:35:06;52.95;;;12.88;;
39370;SDS011;25099;51.946;4.838;2024-01-25T14:37:47;55.03;;;12.88;;
39370;SDS011;25099;51.946;4.838;2024-01-25T14:40:13;42.30;;;11.63;;
39370;SDS011;25099;51.946;4.838;2024-01-25T14:42:38;48.97;;;12.85;;
39370;SDS011;25099;51.946;4.838;2024-01-25T14:45:19;47.72;;;13.57;;
39370;SDS011;25099;51.946;4.838;2024-01-25T14:47:48;45.08;;;13.27;;
39370;SDS011;25099;51.946;4.838;2024-01-25T14:50:17;48.15;;;14.35;;
39370;SDS011;25099;51.946;4.838;2024-01-25T14:52:43;56.42;;;15.07;;
39370;SDS011;25099;51.946;4.838;2024-01-25T14:55:11;47.50;;;15.23;;
39370;SDS011;25099;51.946;4.838;2024-01-25T14:57:37;40.97;;;16.27;;
39370;SDS011;25099;51.946;4.838;2024-01-25T15:00:03;64.80;;;18.65;;
39370;SDS011;25099;51.946;4.838;2024-01-25T15:02:33;60.05;;;18.52;;
39370;SDS011;25099;51.946;4.838;2024-01-25T15:05:08;58.97;;;19.13;;
39370;SDS011;25099;51.946;4.838;2024-01-25T15:07:33;47.33;;;18.98;;
39370;SDS011;25099;51.946;4.838;2024-01-25T15:09:59;67.40;;;22.40;;
39370;SDS011;25099;51.946;4.838;2024-01-25T15:12:24;59.67;;;20.27;;
39370;SDS011;25099;51.946;4.838;2024-01-25T15:14:50;61.67;;;20.65;;
39370;SDS011;25099;51.946;4.838;2024-01-25T15:17:15;63.60;;;20.73;;